createdAt,value
2023-04-27T00:00:51.940Z,4.81
2023-04-27T00:03:20.628Z,4.79
2023-04-27T00:05:49.462Z,4.95
2023-04-27T00:08:18.022Z,4.92
2023-04-27T00:10:46.458Z,5.01
2023-04-27T00:13:16.249Z,5.04
2023-04-27T00:15:45.783Z,5.03
2023-04-27T00:18:14.567Z,5.04
2023-04-27T00:20:43.001Z,4.78
2023-04-27T00:23:11.828Z,4.78
2023-04-27T00:25:40.506Z,4.91
2023-04-27T00:28:08.915Z,4.84
2023-04-27T00:30:38.756Z,4.65
2023-04-27T00:33:07.388Z,4.59
2023-04-27T00:35:35.858Z,4.57
2023-04-27T00:38:04.261Z,4.56
2023-04-27T00:40:32.880Z,4.63
2023-04-27T00:43:01.294Z,4.85
2023-04-27T00:45:30.030Z,4.82
2023-04-27T00:48:00.730Z,4.76
2023-04-27T00:50:30.627Z,4.61
2023-04-27T00:52:59.156Z,4.69
2023-04-27T00:55:27.944Z,4.70
2023-04-27T00:57:56.535Z,4.49
2023-04-27T01:00:25.976Z,4.58
2023-04-27T01:02:55.055Z,4.49
2023-04-27T01:05:26.359Z,4.28
2023-04-27T01:07:54.811Z,4.17
2023-04-27T01:10:23.384Z,4.14
2023-04-27T01:12:52.882Z,4.07
2023-04-27T01:15:21.492Z,3.95
2023-04-27T01:17:50.001Z,4.01
2023-04-27T01:20:19.970Z,4.36
2023-04-27T01:22:50.898Z,4.35
2023-04-27T01:25:21.247Z,3.99
2023-04-27T01:27:49.700Z,3.89
2023-04-27T01:30:18.468Z,3.84
2023-04-27T01:32:47.066Z,4.16
2023-04-27T01:35:15.614Z,3.91
2023-04-27T01:37:44.150Z,3.86
2023-04-27T01:40:14.512Z,4.08
2023-04-27T01:42:44.405Z,4.12
2023-04-27T01:45:13.629Z,3.80
2023-04-27T01:47:42.142Z,4.17
2023-04-27T01:50:11.611Z,4.28
2023-04-27T01:52:40.098Z,4.27
2023-04-27T01:55:10.035Z,4.09
2023-04-27T01:57:38.741Z,4.27
2023-04-27T02:00:11.075Z,4.44
2023-04-27T02:02:40.055Z,4.26
2023-04-27T02:05:10.097Z,4.25
2023-04-27T02:07:38.624Z,4.40
2023-04-27T02:10:08.737Z,4.47
2023-04-27T02:12:37.205Z,4.41
2023-04-27T02:15:09.183Z,4.55
2023-04-27T02:17:38.639Z,4.58
2023-04-27T02:20:09.058Z,4.39
2023-04-27T02:22:37.700Z,4.57
2023-04-27T02:25:07.294Z,4.27
2023-04-27T02:27:38.454Z,4.64
2023-04-27T02:30:11.789Z,4.61
2023-04-27T02:32:41.375Z,4.62
2023-04-27T02:35:11.111Z,4.76
2023-04-27T02:37:39.931Z,4.62
2023-04-27T02:40:10.393Z,4.56
2023-04-27T02:42:39.372Z,4.67
2023-04-27T02:45:10.773Z,4.65
2023-04-27T02:47:39.245Z,4.59
2023-04-27T02:50:09.267Z,4.53
2023-04-27T02:52:37.804Z,4.69
2023-04-27T02:55:07.243Z,4.53
2023-04-27T02:57:35.767Z,4.70
2023-04-27T03:00:06.373Z,4.44
2023-04-27T03:02:36.552Z,4.47
2023-04-27T03:05:06.058Z,4.66
2023-04-27T03:07:34.546Z,4.57
2023-04-27T03:10:03.085Z,4.56
2023-04-27T03:12:31.774Z,4.63
2023-04-27T03:15:01.184Z,4.56
2023-04-27T03:17:29.970Z,4.62
2023-04-27T03:20:00.119Z,4.59
2023-04-27T03:22:28.674Z,4.41
2023-04-27T03:24:57.145Z,4.46
2023-04-27T03:27:25.766Z,4.59
2023-04-27T03:29:54.692Z,4.69
2023-04-27T03:32:23.514Z,4.68
2023-04-27T03:34:52.390Z,4.62
2023-04-27T03:37:22.212Z,4.54
2023-04-27T03:39:51.132Z,4.45
2023-04-27T03:42:19.627Z,4.57
2023-04-27T03:44:48.370Z,4.59
2023-04-27T03:47:16.842Z,4.64
2023-04-27T03:49:45.624Z,4.68
2023-04-27T03:52:14.179Z,4.66
2023-04-27T03:54:44.109Z,4.62
2023-04-27T03:57:12.606Z,4.87
2023-04-27T04:02:30.795Z,4.62
2023-04-27T04:04:59.447Z,4.64
2023-04-27T04:07:28.004Z,4.83
2023-04-27T04:09:57.849Z,4.91
2023-04-27T04:12:26.299Z,4.87
2023-04-27T04:14:54.915Z,4.91
2023-04-27T04:17:23.525Z,4.89
2023-04-27T04:19:52.058Z,5.07
2023-04-27T04:22:20.552Z,5.02
2023-04-27T04:24:49.132Z,5.07
2023-04-27T04:27:19.392Z,5.01
2023-04-27T04:29:48.489Z,5.01
2023-04-27T04:32:18.642Z,4.98
2023-04-27T04:34:51.269Z,5.03
2023-04-27T04:37:19.950Z,5.06
2023-04-27T04:39:48.578Z,4.93
2023-04-27T04:42:18.537Z,5.08
2023-04-27T04:44:47.218Z,5.11
2023-04-27T04:47:15.772Z,5.22
2023-04-27T04:49:44.260Z,5.02
2023-04-27T04:52:12.720Z,5.24
2023-04-27T04:54:41.391Z,5.16
2023-04-27T04:57:10.678Z,5.16
2023-04-27T04:59:41.263Z,5.13
2023-04-27T05:02:09.745Z,5.10
2023-04-27T05:04:38.369Z,5.23
2023-04-27T05:07:07.402Z,5.14
2023-04-27T05:09:35.856Z,5.29
2023-04-27T05:12:04.743Z,5.38
2023-04-27T05:14:33.289Z,5.33
2023-04-27T05:17:03.340Z,5.36
2023-04-27T05:19:32.348Z,5.45
2023-04-27T05:22:01.347Z,5.59
2023-04-27T05:24:30.064Z,5.56
2023-04-27T05:26:59.724Z,5.48
2023-04-27T05:29:30.186Z,5.52
2023-04-27T05:31:58.819Z,5.47
2023-04-27T05:34:28.687Z,5.58
2023-04-27T05:36:57.212Z,5.74
2023-04-27T05:39:26.518Z,5.57
2023-04-27T05:41:55.100Z,5.64
2023-04-27T05:44:25.487Z,5.63
2023-04-27T05:46:53.967Z,5.60
2023-04-27T05:49:23.050Z,5.65
2023-04-27T05:51:53.705Z,6.05
2023-04-27T05:54:22.229Z,6.09
2023-04-27T05:56:52.745Z,6.09
2023-04-27T05:59:21.946Z,5.99
2023-04-27T06:01:51.011Z,5.93
2023-04-27T06:04:19.691Z,6.05
2023-04-27T06:06:48.326Z,6.14
2023-04-27T06:09:18.229Z,6.20
2023-04-27T06:11:48.045Z,6.01
2023-04-27T06:14:17.110Z,6.17
2023-04-27T06:16:45.622Z,5.81
2023-04-27T06:19:14.335Z,6.11
2023-04-27T06:21:44.150Z,5.90
2023-04-27T06:24:12.599Z,5.65
2023-04-27T06:26:42.460Z,5.75
2023-04-27T06:29:11.881Z,5.83
2023-04-27T06:31:40.718Z,5.93
2023-04-27T06:34:09.276Z,6.09
2023-04-27T06:36:38.093Z,6.17
2023-04-27T06:39:06.581Z,6.41
2023-04-27T06:41:35.114Z,6.41
2023-04-27T06:44:05.038Z,6.59
2023-04-27T06:46:33.593Z,6.67
2023-04-27T06:49:02.869Z,6.50
2023-04-27T06:51:32.017Z,6.70
2023-04-27T06:54:00.518Z,7.19
2023-04-27T06:56:29.614Z,6.80
2023-04-27T06:58:58.184Z,7.00
2023-04-27T07:01:28.113Z,6.68
2023-04-27T07:03:57.499Z,6.92
2023-04-27T07:06:28.878Z,7.53
2023-04-27T07:08:57.696Z,7.67
2023-04-27T07:11:26.334Z,7.96
2023-04-27T07:13:55.241Z,7.91
2023-04-27T07:16:23.814Z,8.26
2023-04-27T07:18:53.720Z,8.63
2023-04-27T07:21:22.208Z,9.41
2023-04-27T07:23:50.823Z,9.96
2023-04-27T07:26:20.535Z,10.16
2023-04-27T07:28:49.009Z,10.65
2023-04-27T07:31:19.089Z,11.31
2023-04-27T07:33:47.879Z,12.24
2023-04-27T07:36:17.858Z,13.06
2023-04-27T07:38:46.316Z,12.20
2023-04-27T07:41:15.777Z,12.13
2023-04-27T07:43:44.278Z,11.39
2023-04-27T07:46:13.073Z,11.70
2023-04-27T07:48:42.293Z,11.86
2023-04-27T07:51:10.763Z,11.60
2023-04-27T07:53:40.856Z,12.34
2023-04-27T07:56:10.208Z,11.29
2023-04-27T07:58:39.886Z,11.64
2023-04-27T08:01:09.518Z,11.28
2023-04-27T08:03:38.269Z,11.10
2023-04-27T08:06:07.544Z,11.04
2023-04-27T08:08:36.417Z,11.30
2023-04-27T08:11:06.487Z,11.36
2023-04-27T08:13:36.524Z,11.18
2023-04-27T08:16:05.773Z,11.14
2023-04-27T08:18:34.660Z,11.20
2023-04-27T08:21:04.175Z,10.61
2023-04-27T08:23:33.344Z,10.65
2023-04-27T08:26:01.851Z,10.64
2023-04-27T08:28:31.759Z,10.88
2023-04-27T08:31:00.421Z,11.05
2023-04-27T08:33:28.941Z,11.01
2023-04-27T08:35:57.640Z,11.31
2023-04-27T08:38:26.196Z,11.25
2023-04-27T08:40:54.710Z,11.20
2023-04-27T08:43:23.248Z,11.25
2023-04-27T08:45:53.449Z,11.81
2023-04-27T08:48:22.257Z,12.17
2023-04-27T08:50:52.814Z,12.06
2023-04-27T08:53:23.171Z,13.10
2023-04-27T08:55:53.962Z,12.85
2023-04-27T08:58:22.506Z,12.85
2023-04-27T09:00:52.785Z,12.26
2023-04-27T09:03:25.132Z,11.48
2023-04-27T09:06:04.539Z,11.67
2023-04-27T09:08:46.583Z,11.94
2023-04-27T09:11:15.572Z,12.30
2023-04-27T09:13:45.665Z,11.90
2023-04-27T09:16:15.709Z,11.95
2023-04-27T09:18:45.440Z,11.89
2023-04-27T09:21:24.235Z,11.84
2023-04-27T09:23:53.394Z,12.03
2023-04-27T09:26:23.590Z,12.91
2023-04-27T09:28:54.660Z,12.27
2023-04-27T09:31:32.517Z,13.00
2023-04-27T09:34:01.499Z,12.79
2023-04-27T09:36:32.546Z,12.34
2023-04-27T09:39:06.335Z,11.98
2023-04-27T09:41:35.407Z,11.53
2023-04-27T09:44:05.181Z,11.70
2023-04-27T09:46:36.929Z,11.46
2023-04-27T09:49:06.764Z,11.50
2023-04-27T09:51:36.119Z,11.85
2023-04-27T09:54:06.341Z,11.75
2023-04-27T09:56:50.746Z,12.13
2023-04-27T09:59:48.308Z,12.63
2023-04-27T10:02:25.311Z,12.70
2023-04-27T10:05:29.530Z,12.66
2023-04-27T10:07:58.153Z,12.34
2023-04-27T10:10:26.697Z,12.06
2023-04-27T10:12:59.652Z,13.80
2023-04-27T10:15:29.918Z,14.55
2023-04-27T10:18:07.074Z,14.55
2023-04-27T10:20:38.960Z,14.91
2023-04-27T10:23:08.151Z,14.40
2023-04-27T10:25:41.497Z,13.27
2023-04-27T10:28:17.229Z,12.28
2023-04-27T10:30:49.052Z,12.37
2023-04-27T10:33:21.711Z,11.93
2023-04-27T10:35:58.157Z,12.17
2023-04-27T10:38:31.731Z,12.18
2023-04-27T10:41:02.682Z,12.43
2023-04-27T10:43:33.479Z,12.51
2023-04-27T10:46:13.499Z,12.94
2023-04-27T10:48:44.036Z,13.16
2023-04-27T10:51:16.666Z,13.41
2023-04-27T10:53:45.503Z,12.89
2023-04-27T10:56:14.247Z,13.12
2023-04-27T10:58:48.817Z,12.49
2023-04-27T11:01:26.114Z,12.53
2023-04-27T11:03:58.980Z,12.32
2023-04-27T11:06:28.312Z,12.16
2023-04-27T11:08:57.200Z,11.72
2023-04-27T11:11:26.636Z,11.52
2023-04-27T11:13:56.005Z,11.87
2023-04-27T11:16:25.468Z,11.77
2023-04-27T11:18:55.241Z,12.32
2023-04-27T11:21:25.178Z,12.58
2023-04-27T11:23:53.712Z,12.91
2023-04-27T11:26:26.641Z,12.90
2023-04-27T11:29:01.756Z,12.74
2023-04-27T11:31:41.955Z,12.36
2023-04-27T11:34:11.359Z,12.27
2023-04-27T11:36:41.287Z,12.45
2023-04-27T11:39:11.717Z,12.85
2023-04-27T11:41:45.850Z,14.12
2023-04-27T11:44:14.970Z,14.85
2023-04-27T11:46:47.735Z,14.07
2023-04-27T11:49:16.607Z,13.82
2023-04-27T11:51:48.817Z,13.25
2023-04-27T11:54:17.753Z,12.69
2023-04-27T11:56:46.518Z,13.13
2023-04-27T11:59:23.341Z,12.74
2023-04-27T12:01:53.213Z,12.64
2023-04-27T12:04:22.207Z,12.58
2023-04-27T12:06:52.330Z,12.53
2023-04-27T12:09:20.788Z,12.51
2023-04-27T12:11:49.304Z,12.71
2023-04-27T12:14:19.933Z,13.29
2023-04-27T12:16:48.686Z,14.42
2023-04-27T12:19:17.592Z,14.54
2023-04-27T12:21:46.748Z,14.87
2023-04-27T12:24:16.817Z,15.67
2023-04-27T12:26:45.862Z,15.49
2023-04-27T12:29:14.376Z,15.18
2023-04-27T12:31:42.953Z,15.47
2023-04-27T12:34:12.238Z,14.97
2023-04-27T12:36:41.382Z,13.48
2023-04-27T12:39:20.092Z,13.53
2023-04-27T12:41:49.702Z,13.22
2023-04-27T12:44:19.808Z,13.68
2023-04-27T12:46:49.253Z,13.43
2023-04-27T12:49:18.397Z,13.44
2023-04-27T12:51:47.973Z,13.44
2023-04-27T12:54:17.873Z,13.66
2023-04-27T12:56:47.177Z,13.18
2023-04-27T12:59:16.846Z,14.15
2023-04-27T13:01:46.048Z,14.07
2023-04-27T13:04:22.703Z,13.88
2023-04-27T13:06:51.874Z,13.62
2023-04-27T13:09:22.300Z,12.97
2023-04-27T13:11:53.169Z,13.14
2023-04-27T13:14:21.812Z,12.93
2023-04-27T13:16:50.310Z,13.11
2023-04-27T13:19:18.770Z,13.12
2023-04-27T13:21:47.249Z,13.27
2023-04-27T13:24:17.594Z,13.19
2023-04-27T13:26:47.635Z,13.35
2023-04-27T13:29:16.318Z,13.68
2023-04-27T13:31:44.856Z,13.82
2023-04-27T13:34:13.594Z,13.29
2023-04-27T13:36:42.302Z,13.22
2023-04-27T13:39:10.824Z,13.30
2023-04-27T13:41:39.350Z,13.99
2023-04-27T13:44:09.252Z,14.14
2023-04-27T13:46:38.063Z,13.87
2023-04-27T13:49:06.631Z,13.79
2023-04-27T13:51:36.003Z,13.43
2023-04-27T13:54:04.740Z,13.02
2023-04-27T13:56:33.459Z,13.40
2023-04-27T13:59:02.214Z,13.58
2023-04-27T14:01:33.372Z,13.56
2023-04-27T14:04:02.322Z,13.78
2023-04-27T14:06:32.007Z,13.75
2023-04-27T14:09:00.512Z,13.78
2023-04-27T14:11:29.062Z,14.41
2023-04-27T14:13:58.127Z,15.17
2023-04-27T14:16:26.836Z,15.15
2023-04-27T14:18:57.032Z,14.46
2023-04-27T14:21:26.560Z,14.74
2023-04-27T14:23:55.231Z,14.69
2023-04-27T14:26:23.715Z,13.97
2023-04-27T14:28:52.210Z,13.86
2023-04-27T14:31:20.769Z,13.87
2023-04-27T14:33:49.236Z,14.02
2023-04-27T14:36:19.363Z,14.15
2023-04-27T14:38:47.892Z,14.30
2023-04-27T14:41:16.549Z,14.25
2023-04-27T14:43:47.114Z,14.17
2023-04-27T14:46:21.011Z,14.58
2023-04-27T14:48:51.489Z,14.41
2023-04-27T14:51:21.871Z,14.57
2023-04-27T14:53:50.413Z,15.19
2023-04-27T14:56:18.920Z,15.25
2023-04-27T14:58:47.403Z,14.89
2023-04-27T15:01:16.387Z,15.14
2023-04-27T15:03:45.116Z,15.52
2023-04-27T15:06:13.939Z,15.06
2023-04-27T15:08:43.753Z,15.15
2023-04-27T15:11:12.232Z,15.39
2023-04-27T15:13:41.674Z,15.33
2023-04-27T15:16:10.228Z,14.79
2023-04-27T15:18:38.754Z,14.58
2023-04-27T15:21:08.004Z,14.47
2023-04-27T15:23:37.410Z,14.46
2023-04-27T15:26:07.359Z,14.26
2023-04-27T15:28:36.414Z,14.58
2023-04-27T15:31:05.209Z,14.84
2023-04-27T15:33:33.752Z,15.01
2023-04-27T15:36:02.263Z,14.54
2023-04-27T15:38:30.812Z,14.38
2023-04-27T15:40:59.797Z,14.09
2023-04-27T15:43:29.711Z,13.96
2023-04-27T15:45:58.174Z,13.98
2023-04-27T15:48:26.828Z,13.87
2023-04-27T15:50:55.298Z,14.12
2023-04-27T15:53:24.064Z,14.51
2023-04-27T15:55:52.932Z,14.63
2023-04-27T15:58:21.545Z,14.54
2023-04-27T16:00:51.628Z,14.53
2023-04-27T16:03:20.478Z,14.68
2023-04-27T16:05:52.518Z,14.72
2023-04-27T16:08:21.086Z,14.57
2023-04-27T16:10:50.849Z,14.39
2023-04-27T16:13:19.330Z,14.75
2023-04-27T16:15:47.793Z,14.83
2023-04-27T16:18:17.659Z,14.75
2023-04-27T16:20:46.168Z,14.73
2023-04-27T16:23:14.701Z,14.62
2023-04-27T16:25:43.178Z,14.45
2023-04-27T16:28:11.907Z,14.77
2023-04-27T16:30:40.451Z,14.68
2023-04-27T16:33:09.000Z,14.64
2023-04-27T16:35:38.978Z,14.46
2023-04-27T16:38:07.546Z,14.58
2023-04-27T16:40:36.062Z,14.56
2023-04-27T16:43:04.566Z,14.47
2023-04-27T16:45:34.483Z,14.54
2023-04-27T16:48:03.462Z,14.73
2023-04-27T16:50:33.475Z,14.36
2023-04-27T16:53:13.695Z,14.49
2023-04-27T16:55:42.336Z,14.43
2023-04-27T16:58:11.100Z,14.34
2023-04-27T17:00:40.222Z,14.21
2023-04-27T17:03:09.782Z,14.19
2023-04-27T17:05:38.619Z,14.20
2023-04-27T17:08:08.554Z,14.11
2023-04-27T17:10:37.741Z,14.11
2023-04-27T17:13:07.790Z,14.17
2023-04-27T17:15:36.980Z,13.71
2023-04-27T17:18:05.891Z,13.56
2023-04-27T17:20:34.526Z,13.54
2023-04-27T17:23:03.157Z,13.62
2023-04-27T17:25:33.108Z,13.60
2023-04-27T17:28:01.908Z,13.55
2023-04-27T17:30:30.428Z,13.27
2023-04-27T17:32:59.022Z,13.09
2023-04-27T17:35:27.749Z,12.50
2023-04-27T17:37:56.456Z,11.83
2023-04-27T17:40:24.980Z,11.75
2023-04-27T17:42:56.628Z,11.56
2023-04-27T17:45:26.786Z,11.63
2023-04-27T17:47:55.351Z,11.78
2023-04-27T17:50:25.129Z,11.37
2023-04-27T17:52:54.225Z,11.49
2023-04-27T17:55:23.520Z,11.49
2023-04-27T17:57:52.128Z,11.47
2023-04-27T18:00:23.303Z,11.20
2023-04-27T18:02:52.176Z,10.93
2023-04-27T18:05:20.864Z,10.12
2023-04-27T18:07:50.202Z,10.09
2023-04-27T18:10:18.806Z,10.54
2023-04-27T18:12:47.363Z,10.65
2023-04-27T18:15:15.900Z,9.94
2023-04-27T18:17:45.937Z,10.40
2023-04-27T18:20:15.872Z,9.96
2023-04-27T18:22:44.512Z,9.58
2023-04-27T18:25:13.370Z,9.43
2023-04-27T18:27:43.951Z,9.46
2023-04-27T18:30:13.077Z,9.24
2023-04-27T18:32:41.621Z,9.33
2023-04-27T18:35:11.820Z,9.00
2023-04-27T18:37:40.508Z,8.99
2023-04-27T18:40:10.934Z,9.23
2023-04-27T18:42:39.409Z,9.26
2023-04-27T18:45:09.841Z,9.39
2023-04-27T18:47:38.504Z,9.08
2023-04-27T18:50:09.021Z,9.49
2023-04-27T18:52:38.976Z,8.97
2023-04-27T18:55:10.175Z,8.96
2023-04-27T18:57:38.754Z,8.63
2023-04-27T19:00:10.678Z,8.68
2023-04-27T19:02:39.803Z,8.55
2023-04-27T19:05:13.410Z,8.65
2023-04-27T19:07:43.493Z,8.97
2023-04-27T19:10:13.880Z,9.03
2023-04-27T19:12:42.419Z,8.60
2023-04-27T19:15:12.395Z,8.95
2023-04-27T19:17:41.468Z,8.93
2023-04-27T19:20:11.343Z,8.51
2023-04-27T19:22:39.813Z,8.12
2023-04-27T19:25:10.931Z,8.24
2023-04-27T19:27:39.783Z,7.88
2023-04-27T19:30:10.289Z,7.83
2023-04-27T19:32:38.842Z,7.80
2023-04-27T19:35:11.772Z,7.65
2023-04-27T19:37:40.345Z,7.65
2023-04-27T19:40:12.366Z,7.71
2023-04-27T19:42:40.949Z,7.67
2023-04-27T19:45:10.810Z,7.81
2023-04-27T19:47:39.364Z,7.73
2023-04-27T19:50:08.925Z,7.81
2023-04-27T19:52:37.830Z,8.21
2023-04-27T19:55:07.207Z,8.34
2023-04-27T19:57:37.795Z,8.21
2023-04-27T20:00:11.654Z,7.95
2023-04-27T20:02:40.675Z,7.85
2023-04-27T20:05:09.820Z,7.85
2023-04-27T20:07:38.982Z,7.86
2023-04-27T20:10:08.729Z,7.79
2023-04-27T20:12:52.019Z,7.62
2023-04-27T20:15:25.396Z,7.50
2023-04-27T20:17:53.982Z,7.57
2023-04-27T20:20:22.767Z,7.65
2023-04-27T20:22:51.442Z,7.72
2023-04-27T20:25:20.473Z,7.63
2023-04-27T20:27:50.373Z,7.46
2023-04-27T20:30:18.965Z,7.54
2023-04-27T20:32:47.506Z,7.73
2023-04-27T20:35:16.102Z,7.84
2023-04-27T20:37:44.882Z,7.67
2023-04-27T20:40:17.653Z,7.81
2023-04-27T20:42:46.921Z,8.01
2023-04-27T20:45:17.574Z,7.91
2023-04-27T20:47:46.371Z,7.62
2023-04-27T20:50:15.112Z,7.71
2023-04-27T20:52:43.591Z,7.82
2023-04-27T20:55:12.490Z,7.77
2023-04-27T20:57:40.961Z,7.49
2023-04-27T21:00:10.833Z,7.56
2023-04-27T21:02:41.084Z,7.70
2023-04-27T21:05:10.259Z,7.57
2023-04-27T21:07:38.941Z,7.20
2023-04-27T21:10:08.873Z,6.99
2023-04-27T21:12:37.347Z,7.27
2023-04-27T21:15:06.938Z,7.04
2023-04-27T21:17:35.827Z,7.02
2023-04-27T21:20:06.622Z,7.04
2023-04-27T21:22:35.152Z,7.12
2023-04-27T21:25:04.969Z,7.24
2023-04-27T21:27:33.496Z,7.14
2023-04-27T21:30:01.987Z,7.28
2023-04-27T21:32:30.645Z,7.54
2023-04-27T21:34:59.196Z,7.40
2023-04-27T21:37:29.306Z,7.66
2023-04-27T21:39:57.777Z,7.59
2023-04-27T21:42:26.621Z,7.54
2023-04-27T21:44:56.175Z,7.73
2023-04-27T21:47:24.777Z,7.96
2023-04-27T21:49:53.316Z,7.81
2023-04-27T21:52:22.564Z,7.33
2023-04-27T21:54:52.640Z,7.56
2023-04-27T21:57:21.108Z,7.65
2023-04-27T21:59:49.789Z,7.44
2023-04-27T22:02:18.392Z,7.39
2023-04-27T22:04:49.451Z,7.49
2023-04-27T22:07:18.688Z,7.35
2023-04-27T22:09:47.203Z,7.15
2023-04-27T22:12:17.021Z,7.02
2023-04-27T22:14:46.984Z,7.07
2023-04-27T22:17:15.437Z,7.07
2023-04-27T22:19:43.914Z,7.02
2023-04-27T22:22:12.744Z,6.92
2023-04-27T22:24:41.355Z,7.10
2023-04-27T22:27:10.039Z,7.05
2023-04-27T22:29:39.890Z,7.01
2023-04-27T22:32:08.657Z,7.03
2023-04-27T22:34:37.521Z,6.88
2023-04-27T22:37:06.090Z,6.86
2023-04-27T22:39:34.596Z,6.27
2023-04-27T22:42:03.042Z,6.84
2023-04-27T22:44:32.044Z,6.96
2023-04-27T22:47:02.535Z,6.74
2023-04-27T22:49:32.135Z,6.80
2023-04-27T22:52:00.618Z,6.97
2023-04-27T22:54:29.771Z,7.02
2023-04-27T22:56:58.688Z,7.31
2023-04-27T22:59:27.214Z,7.17
2023-04-27T23:01:55.880Z,7.09
2023-04-27T23:04:26.582Z,7.36
2023-04-27T23:06:55.445Z,7.43
2023-04-27T23:09:23.924Z,7.24
2023-04-27T23:11:52.417Z,7.13
2023-04-27T23:14:21.303Z,6.96
2023-04-27T23:16:49.849Z,7.28
2023-04-27T23:19:18.393Z,7.38
2023-04-27T23:21:48.185Z,7.27
2023-04-27T23:24:16.785Z,7.34
2023-04-27T23:26:45.353Z,7.02
2023-04-27T23:29:13.797Z,6.87
2023-04-27T23:31:42.387Z,6.62
2023-04-27T23:34:10.821Z,6.64
2023-04-27T23:36:39.572Z,6.34
2023-04-27T23:39:09.438Z,6.48
2023-04-27T23:41:38.622Z,6.77
2023-04-27T23:44:07.140Z,6.69
2023-04-27T23:46:36.193Z,6.70
2023-04-27T23:49:04.700Z,6.40
2023-04-27T23:51:33.335Z,6.73
2023-04-27T23:54:02.502Z,6.86
2023-04-27T23:56:32.309Z,6.72
2023-04-27T23:59:01.024Z,6.90
